createdAt,value
2023-01-15T00:08:02.216Z,95.1
2023-01-15T00:20:02.187Z,95.8
2023-01-15T00:32:02.134Z,92.2
2023-01-15T00:44:02.100Z,94.1
2023-01-15T00:56:02.133Z,94.1
2023-01-15T01:08:02.181Z,93.4
2023-01-15T01:20:02.154Z,93.2
2023-01-15T01:32:02.224Z,92.4
2023-01-15T01:44:02.113Z,92.4
2023-01-15T01:56:02.120Z,90.6
2023-01-15T02:08:02.112Z,90.6
2023-01-15T02:20:02.202Z,91.3
2023-01-15T02:32:02.271Z,90.0
2023-01-15T02:44:02.197Z,88.7
2023-01-15T02:56:02.166Z,90.1
2023-01-15T03:08:02.207Z,90.5
2023-01-15T03:20:02.146Z,90.9
2023-01-15T03:32:02.231Z,91.4
2023-01-15T03:44:02.152Z,93.4
2023-01-15T03:56:02.129Z,92.9
2023-01-15T04:08:02.168Z,91.8
2023-01-15T04:20:02.129Z,91.8
2023-01-15T04:32:02.115Z,91.4
2023-01-15T04:44:02.118Z,92.5
2023-01-15T04:56:02.113Z,92.9
2023-01-15T05:08:02.972Z,94.0
2023-01-15T05:20:02.176Z,93.5
2023-01-15T05:32:02.173Z,93.9
2023-01-15T05:44:02.128Z,94.2
2023-01-15T05:56:02.211Z,94.3
2023-01-15T06:08:02.127Z,95.1
2023-01-15T06:20:02.216Z,95.2
2023-01-15T06:32:02.128Z,95.4
2023-01-15T06:44:02.103Z,96.0
2023-01-15T06:56:02.160Z,96.1
2023-01-15T07:08:03.668Z,96.5
2023-01-15T07:20:02.209Z,96.6
2023-01-15T07:32:02.218Z,96.5
2023-01-15T07:44:02.210Z,96.4
2023-01-15T07:56:02.138Z,96.2
2023-01-15T08:08:02.119Z,96.5
2023-01-15T08:20:02.170Z,96.5
2023-01-15T08:32:03.314Z,96.6
2023-01-15T08:44:02.118Z,96.6
2023-01-15T08:56:02.117Z,95.4
2023-01-15T09:08:02.124Z,95.4
2023-01-15T09:20:02.196Z,93.8
2023-01-15T09:32:02.193Z,91.0
2023-01-15T09:44:02.108Z,90.3
2023-01-15T09:56:02.134Z,89.5
2023-01-15T10:08:02.118Z,89.0
2023-01-15T10:20:02.597Z,89.5
2023-01-15T10:32:02.186Z,89.1
2023-01-15T10:44:02.173Z,87.2
2023-01-15T10:56:02.113Z,87.3
2023-01-15T11:08:34.243Z,87.4
2023-01-15T11:20:02.147Z,86.4
2023-01-15T11:32:02.654Z,83.2
2023-01-15T11:44:02.171Z,80.8
2023-01-15T11:56:02.201Z,79.2
2023-01-15T12:08:02.123Z,79.0
2023-01-15T12:20:02.108Z,77.4
2023-01-15T12:32:02.110Z,76.3
2023-01-15T12:44:02.111Z,74.8
2023-01-15T12:56:02.112Z,78.0
2023-01-15T13:08:02.127Z,77.2
2023-01-15T13:20:02.198Z,76.0
2023-01-15T13:32:02.246Z,76.3
2023-01-15T13:44:02.194Z,76.9
2023-01-15T13:56:02.106Z,75.6
2023-01-15T14:08:02.127Z,75.4
2023-01-15T14:20:02.154Z,75.7
2023-01-15T14:32:02.129Z,75.3
2023-01-15T14:44:02.229Z,74.7
2023-01-15T14:56:02.183Z,75.5
2023-01-15T15:08:02.122Z,77.3
2023-01-15T15:20:02.314Z,77.6
2023-01-15T15:32:02.124Z,79.3
2023-01-15T15:44:02.218Z,79.7
2023-01-15T15:56:02.201Z,79.5
2023-01-15T16:08:02.120Z,80.6
2023-01-15T16:20:02.109Z,81.4
2023-01-15T16:32:02.123Z,82.0
2023-01-15T16:44:02.146Z,82.3
2023-01-15T16:56:02.208Z,82.7
2023-01-15T17:08:02.111Z,84.1
2023-01-15T17:20:02.121Z,85.2
2023-01-15T17:32:04.363Z,85.9
2023-01-15T17:44:02.142Z,86.4
2023-01-15T17:56:02.117Z,87.0
2023-01-15T18:08:02.139Z,87.0
2023-01-15T18:20:02.105Z,86.9
2023-01-15T18:32:02.109Z,87.7
2023-01-15T18:44:02.114Z,88.1
2023-01-15T18:56:02.199Z,88.0
2023-01-15T19:08:02.125Z,90.4
2023-01-15T19:20:02.173Z,90.8
2023-01-15T19:32:02.163Z,91.2
2023-01-15T19:44:02.135Z,90.8
2023-01-15T19:56:02.166Z,92.0
2023-01-15T20:08:02.122Z,91.3
2023-01-15T20:20:02.103Z,89.8
2023-01-15T20:32:02.101Z,89.0
2023-01-15T20:44:02.200Z,87.8
2023-01-15T20:56:02.195Z,87.3
2023-01-15T21:08:02.112Z,86.9
2023-01-15T21:20:02.122Z,87.0
2023-01-15T21:32:02.167Z,87.4
2023-01-15T21:44:02.207Z,86.9
2023-01-15T21:56:02.098Z,86.5
2023-01-15T22:08:02.182Z,85.8
2023-01-15T22:20:02.149Z,85.2
2023-01-15T22:32:02.106Z,85.6
2023-01-15T22:44:02.164Z,87.6
2023-01-15T22:56:02.135Z,87.5
2023-01-15T23:08:02.113Z,85.9
2023-01-15T23:20:02.198Z,86.3
2023-01-15T23:32:02.103Z,86.4
2023-01-15T23:44:02.172Z,85.8
2023-01-15T23:56:02.139Z,85.9
